Terminal Aerodrome Forecast
Issued by NWS

Home | Current Version | Previous Version | Text Only | Print | Product List | Glossary On
Versions: 1 2 3 4 5 6 7 8 9 10 11 12 13 14 15 16 17 18 19 20 21 22 23 24 25 26
000
FTUS46 KMTR 281500 AAB
TAFSFO
TAF AMD
KSFO 281500Z 2815/2918 26005KT P6SM FEW011 SCT200
     FM282000 31010KT P6SM FEW250
     FM282200 29020G28KT P6SM FEW250
     FM290700 28015G20KT P6SM SKC
     FM291000 28010KT P6SM SKC=

USA.gov is the U.S. government's official web portal to all federal, state and local government web resources and services.